Time;durP1;ratioP1;P1;durP2;ratioP2;P2;SDS_P1;SDS_P2;PMS_P1;PMS_P2;Temp;Humidity;BMP_temperature;BMP_pressure;BME280_temperature;BME280_humidity;BME280_pressure;Samples;Min_cycle;Max_cycle;Signal;HPM_P1;HPM_P2
2023/02/04 00:00:08;;;;;;;;;;;6.90;99.90;7.40;101311.00;;;;345275;28;87229;-94
2023/02/04 00:00:21;;;;;;;;;;;6.90;99.90;7.40;101308.00;;;;343485;28;83297;-93
2023/02/04 00:00:36;;;;;;;;;;;6.90;99.90;7.40;101299.00;;;;342853;28;92125;-94
2023/02/04 00:00:48;;;;;;;;;;;6.90;99.90;7.50;101304.00;;;;343363;28;83334;-92
2023/02/04 00:01:00;;;;;;;;;;;6.90;99.90;7.50;101305.00;;;;346775;28;92853;-93
2023/02/04 00:01:11;;;;;;;;;;;7.00;99.90;7.50;101303.00;;;;346139;28;82395;-93
2023/02/04 00:01:23;;;;;;;;;;;6.90;99.90;7.60;101307.00;;;;345705;28;89354;-93
2023/02/04 00:01:35;;;;;;;;;;;7.00;99.90;7.50;101306.00;;;;346149;28;82588;-93
2023/02/04 00:01:47;;;;;;;;;;;6.90;99.90;7.50;101310.00;;;;344341;28;89399;-93
2023/02/04 00:01:59;;;;;;;;;;;7.00;99.90;7.50;101302.00;;;;344367;28;83675;-94
2023/02/04 00:02:10;;;;;;;;;;;7.00;99.90;7.40;101314.00;;;;345529;28;89411;-93
2023/02/04 00:02:22;;;;;;;;;;;7.00;99.90;7.40;101308.00;;;;345940;28;83585;-93
2023/02/04 00:02:34;;;;;;;;;;;7.00;99.90;7.40;101300.00;;;;345518;28;90123;-93
2023/02/04 00:02:46;;;;;;;;;;;7.00;99.90;7.40;101302.00;;;;346113;28;82597;-94
2023/02/04 00:02:58;;;;;;;;;;;7.00;99.90;7.40;101302.00;;;;345663;28;88806;-93
2023/02/04 00:03:10;;;;;;;;;;;6.90;99.90;7.40;101300.00;;;;346189;28;83272;-96
2023/02/04 00:03:22;;;;;;;;;;;6.90;99.90;7.40;101305.00;;;;345560;28;87209;-93
2023/02/04 00:03:33;;;;;;;;;;;7.00;99.90;7.40;101307.00;;;;346165;28;83399;-94
2023/02/04 00:03:45;;;;;;;;;;;6.90;99.90;7.40;101301.00;;;;346845;28;91651;-94
2023/02/04 00:03:57;;;;;;;;;;;7.00;99.90;7.40;101306.00;;;;345903;28;83502;-94
2023/02/04 00:04:11;;;;;;;;;;;7.00;99.90;7.40;101300.00;;;;344258;28;88395;-94
2023/02/04 00:04:23;;;;;;;;;;;6.90;99.90;7.40;101307.00;;;;345989;28;82429;-93
2023/02/04 00:04:35;;;;;;;;;;;6.90;99.90;7.40;101293.00;;;;347054;28;87962;-94
2023/02/04 00:04:46;;;;;;;;;;;7.00;99.90;7.50;101305.00;;;;346064;28;83363;-94
2023/02/04 00:04:59;;;;;;;;;;;6.90;99.90;7.50;101301.00;;;;344022;28;93216;-94
2023/02/04 00:05:11;;;;;;;;;;;6.90;99.90;7.40;101304.00;;;;343430;28;83387;-95
2023/02/04 00:05:23;;;;;;;;;;;6.90;99.90;7.40;101306.00;;;;345632;28;91043;-94
2023/02/04 00:05:35;;;;;;;;;;;7.00;99.90;7.50;101306.00;;;;345828;28;82609;-93
2023/02/04 00:05:47;;;;;;;;;;;7.00;99.90;7.50;101306.00;;;;344425;28;89019;-94
2023/02/04 00:05:59;;;;;;;;;;;7.00;99.90;7.50;101308.00;;;;345846;28;83452;-94
2023/02/04 00:06:11;;;;;;;;;;;7.00;99.90;7.50;101303.00;;;;345406;28;89162;-94
2023/02/04 00:06:22;;;;;;;;;;;7.00;99.90;7.50;101303.00;;;;344837;28;82376;-94
2023/02/04 00:06:34;;;;;;;;;;;7.00;99.90;7.50;101305.00;;;;343933;28;87061;-95
2023/02/04 00:06:46;;;;;;;;;;;7.00;99.90;7.40;101306.00;;;;345819;28;83542;-94
2023/02/04 00:06:58;;;;;;;;;;;7.00;99.90;7.40;101303.00;;;;345330;28;91489;-94
2023/02/04 00:07:09;;;;;;;;;;;7.00;99.90;7.40;101302.00;;;;347572;28;83202;-94
2023/02/04 00:07:21;;;;;;;;;;;7.00;99.90;7.40;101300.00;;;;347164;28;87490;-94
2023/02/04 00:07:33;;;;;;;;;;;7.00;99.90;7.40;101302.00;;;;346144;28;83588;-94
2023/02/04 00:07:45;;;;;;;;;;;7.00;99.90;7.40;101300.00;;;;344284;28;89675;-94
2023/02/04 00:07:57;;;;;;;;;;;7.00;99.90;7.40;101305.00;;;;346150;28;82482;-94
2023/02/04 00:08:08;;;;;;;;;;;7.00;99.90;7.40;101304.00;;;;344014;28;89400;-94
2023/02/04 00:08:20;;;;;;;;;;;7.00;99.90;7.40;101308.00;;;;347539;28;82446;-94
2023/02/04 00:08:32;;;;;;;;;;;7.00;99.90;7.50;101306.00;;;;346783;28;92391;-94
2023/02/04 00:08:44;;;;;;;;;;;6.90;99.90;7.40;101301.00;;;;346066;28;82625;-93
2023/02/04 00:08:56;;;;;;;;;;;7.00;99.90;7.50;101303.00;;;;345549;28;90108;-94
2023/02/04 00:09:07;;;;;;;;;;;6.90;99.90;7.50;101297.00;;;;347343;28;83599;-94
2023/02/04 00:09:19;;;;;;;;;;;7.00;99.90;7.50;101304.00;;;;345718;28;88331;-92
2023/02/04 00:09:31;;;;;;;;;;;7.00;99.90;7.40;101305.00;;;;346235;28;82302;-94
2023/02/04 00:09:46;;;;;;;;;;;7.00;99.90;7.50;101303.00;;;;344493;28;88546;-93
2023/02/04 00:09:57;;;;;;;;;;;7.00;99.90;7.50;101304.00;;;;344513;28;83400;-94
2023/02/04 00:10:09;;;;;;;;;;;7.00;99.90;7.50;101303.00;;;;347145;28;87644;-94
2023/02/04 00:10:21;;;;;;;;;;;7.00;99.90;7.50;101306.00;;;;347595;28;82455;-94
2023/02/04 00:10:33;;;;;;;;;;;7.00;99.90;7.50;101303.00;;;;346933;28;89451;-94
2023/02/04 00:10:45;;;;;;;;;;;7.00;99.90;7.60;101304.00;;;;347374;28;83441;-95
2023/02/04 00:10:57;;;;;;;;;;;7.00;99.90;7.60;101307.00;;;;346696;28;90667;-95
2023/02/04 00:11:09;;;;;;;;;;;7.00;99.90;7.60;101295.00;;;;346158;28;82576;-94
2023/02/04 00:11:20;;;;;;;;;;;7.00;99.90;7.60;101296.00;;;;348507;27;89410;-93
2023/02/04 00:11:35;;;;;;;;;;;7.00;99.90;7.50;101298.00;;;;348916;27;83493;-92
2023/02/04 00:11:47;;;;;;;;;;;7.00;99.90;7.50;101306.00;;;;346888;28;90113;-94
2023/02/04 00:11:59;;;;;;;;;;;7.00;99.90;7.50;101298.00;;;;345877;28;83548;-94
2023/02/04 00:12:11;;;;;;;;;;;7.00;99.90;7.50;101306.00;;;;345519;28;89384;-93
2023/02/04 00:12:23;;;;;;;;;;;7.00;99.90;7.50;101301.00;;;;345924;28;82448;-94
2023/02/04 00:12:35;;;;;;;;;;;7.00;99.90;7.50;101306.00;;;;345510;28;91436;-93
2023/02/04 00:12:46;;;;;;;;;;;7.00;99.90;7.60;101301.00;;;;345823;28;82602;-94
2023/02/04 00:12:58;;;;;;;;;;;7.00;99.90;7.60;101302.00;;;;346838;28;90098;-93
2023/02/04 00:13:10;;;;;;;;;;;7.00;99.90;7.60;101301.00;;;;344532;28;83600;-94
2023/02/04 00:13:22;;;;;;;;;;;7.00;99.90;7.60;101289.00;;;;344412;28;87827;-94
2023/02/04 00:13:34;;;;;;;;;;;7.00;99.90;7.60;101303.00;;;;347521;27;82401;-94
2023/02/04 00:13:45;;;;;;;;;;;7.00;99.90;7.50;101290.00;;;;346886;27;90518;-94
2023/02/04 00:13:57;;;;;;;;;;;7.10;99.90;7.50;101296.00;;;;344519;28;83497;-94
2023/02/04 00:14:09;;;;;;;;;;;7.00;99.90;7.50;101302.00;;;;345723;28;87624;-93
2023/02/04 00:14:21;;;;;;;;;;;7.00;99.90;7.60;101294.00;;;;345900;28;83598;-95
2023/02/04 00:14:33;;;;;;;;;;;7.10;99.90;7.50;101301.00;;;;347135;28;88355;-93
2023/02/04 00:14:45;;;;;;;;;;;7.10;99.90;7.50;101299.00;;;;347150;28;82631;-94
2023/02/04 00:14:56;;;;;;;;;;;7.00;99.90;7.50;101302.00;;;;347097;28;88901;-94
2023/02/04 00:15:09;;;;;;;;;;;7.10;99.90;7.50;101303.00;;;;347199;28;83400;-92
2023/02/04 00:15:21;;;;;;;;;;;7.00;99.90;7.50;101309.00;;;;345743;28;89565;-93
2023/02/04 00:15:33;;;;;;;;;;;7.00;99.90;7.50;101309.00;;;;347642;28;83290;-95
2023/02/04 00:15:44;;;;;;;;;;;7.10;99.90;7.50;101301.00;;;;345515;28;90642;-94
2023/02/04 00:15:56;;;;;;;;;;;7.00;99.90;7.50;101304.00;;;;344928;28;83402;-93
2023/02/04 00:16:08;;;;;;;;;;;7.00;99.90;7.50;101300.00;;;;343928;28;89871;-93
2023/02/04 00:16:20;;;;;;;;;;;7.10;99.90;7.50;101299.00;;;;346326;28;83493;-94
2023/02/04 00:16:32;;;;;;;;;;;7.00;99.90;7.50;101306.00;;;;345764;28;89165;-93
2023/02/04 00:16:44;;;;;;;;;;;7.00;99.90;7.50;101305.00;;;;344766;28;82265;-93
2023/02/04 00:16:55;;;;;;;;;;;7.00;99.90;7.50;101298.00;;;;345643;28;90314;-94
2023/02/04 00:17:09;;;;;;;;;;;7.00;99.90;7.50;101301.00;;;;346036;28;83410;-94
2023/02/04 00:17:21;;;;;;;;;;;7.00;99.90;7.50;101302.00;;;;347173;28;87890;-94
2023/02/04 00:17:32;;;;;;;;;;;7.00;99.90;7.50;101302.00;;;;348661;27;82396;-94
2023/02/04 00:17:44;;;;;;;;;;;7.00;99.90;7.50;101303.00;;;;348625;27;87074;-94
2023/02/04 00:17:56;;;;;;;;;;;7.00;99.90;7.50;101306.00;;;;346334;28;82398;-94
2023/02/04 00:18:08;;;;;;;;;;;7.00;99.90;7.50;101303.00;;;;345601;28;88296;-94
2023/02/04 00:18:20;;;;;;;;;;;7.00;99.90;7.50;101296.00;;;;343495;28;82387;-93
2023/02/04 00:18:32;;;;;;;;;;;7.10;99.90;7.50;101306.00;;;;344379;28;89658;-94
2023/02/04 00:18:44;;;;;;;;;;;7.00;99.90;7.50;101305.00;;;;347248;28;83507;-94
2023/02/04 00:18:56;;;;;;;;;;;7.00;99.90;7.50;101296.00;;;;345337;28;91489;-94
2023/02/04 00:19:08;;;;;;;;;;;7.00;99.90;7.50;101306.00;;;;344781;28;83298;-95
2023/02/04 00:19:19;;;;;;;;;;;7.00;99.90;7.60;101304.00;;;;346711;28;91597;-92
2023/02/04 00:19:31;;;;;;;;;;;7.00;99.90;7.60;101300.00;;;;346098;28;83443;-94
2023/02/04 00:19:43;;;;;;;;;;;7.00;99.90;7.60;101306.00;;;;344382;28;88444;-94
2023/02/04 00:19:55;;;;;;;;;;;7.00;99.90;7.50;101303.00;;;;347043;28;84043;-95
2023/02/04 00:20:07;;;;;;;;;;;7.10;99.90;7.50;101300.00;;;;345577;28;88276;-94
2023/02/04 00:20:19;;;;;;;;;;;7.00;99.90;7.60;101296.00;;;;343371;28;83460;-94
2023/02/04 00:20:31;;;;;;;;;;;7.00;99.90;7.50;101302.00;;;;345781;28;87585;-94
2023/02/04 00:20:43;;;;;;;;;;;7.10;99.90;7.50;101306.00;;;;347095;28;82540;-94
2023/02/04 00:20:55;;;;;;;;;;;7.10;99.90;7.60;101302.00;;;;346999;28;89583;-95
2023/02/04 00:21:07;;;;;;;;;;;7.10;99.90;7.60;101303.00;;;;347413;28;83431;-94
2023/02/04 00:21:18;;;;;;;;;;;7.10;99.90;7.60;101306.00;;;;345750;28;88370;-94
2023/02/04 00:21:30;;;;;;;;;;;7.10;99.90;7.60;101303.00;;;;347175;28;83549;-94
2023/02/04 00:21:42;;;;;;;;;;;7.10;99.90;7.50;101297.00;;;;347130;28;87697;-95
2023/02/04 00:21:54;;;;;;;;;;;7.10;99.90;7.60;101302.00;;;;347392;28;83487;-94
2023/02/04 00:22:06;;;;;;;;;;;7.10;99.90;7.60;101306.00;;;;345498;28;90274;-94
2023/02/04 00:22:19;;;;;;;;;;;7.10;99.90;7.60;101293.00;;;;347125;28;83548;-95
2023/02/04 00:22:31;;;;;;;;;;;7.10;99.90;7.60;101299.00;;;;344135;28;89736;-94
2023/02/04 00:22:43;;;;;;;;;;;7.10;99.90;7.50;101301.00;;;;345657;28;82461;-94
2023/02/04 00:22:56;;;;;;;;;;;7.10;99.90;7.50;101303.00;;;;346676;28;91765;-94
2023/02/04 00:23:07;;;;;;;;;;;7.10;99.90;7.50;101290.00;;;;346219;28;83194;-94
2023/02/04 00:23:19;;;;;;;;;;;7.10;99.90;7.50;101297.00;;;;347023;28;89636;-92
2023/02/04 00:23:31;;;;;;;;;;;7.10;99.90;7.50;101295.00;;;;346127;28;82435;-94
2023/02/04 00:23:43;;;;;;;;;;;7.00;99.90;7.50;101293.00;;;;346588;28;89443;-94
2023/02/04 00:23:55;;;;;;;;;;;7.10;99.90;7.60;101296.00;;;;345862;28;83425;-94
2023/02/04 00:24:07;;;;;;;;;;;7.10;99.90;7.60;101301.00;;;;345617;28;89976;-94
2023/02/04 00:24:18;;;;;;;;;;;7.10;99.90;7.60;101295.00;;;;343417;28;82485;-94
2023/02/04 00:24:30;;;;;;;;;;;7.10;99.90;7.50;101302.00;;;;345693;28;88708;-94
2023/02/04 00:24:47;;;;;;;;;;;7.10;99.90;7.60;101299.00;;;;347304;28;83525;-94
2023/02/04 00:24:59;;;;;;;;;;;7.10;99.90;7.50;101297.00;;;;347068;28;89035;-94
2023/02/04 00:25:10;;;;;;;;;;;7.10;99.90;7.60;101304.00;;;;347620;28;83351;-94
2023/02/04 00:25:22;;;;;;;;;;;7.10;99.90;7.60;101307.00;;;;348111;27;89180;-94
2023/02/04 00:25:34;;;;;;;;;;;7.10;99.90;7.60;101298.00;;;;347297;28;83492;-94
2023/02/04 00:25:46;;;;;;;;;;;7.10;99.90;7.60;101306.00;;;;346832;28;90548;-93
2023/02/04 00:25:58;;;;;;;;;;;7.10;99.90;7.60;101300.00;;;;346132;28;82331;-93
2023/02/04 00:26:09;;;;;;;;;;;7.10;99.90;7.60;101301.00;;;;348446;27;88940;-94
2023/02/04 00:26:21;;;;;;;;;;;7.10;99.90;7.60;101296.00;;;;347070;28;82650;-93
2023/02/04 00:26:33;;;;;;;;;;;7.10;99.90;7.60;101295.00;;;;347045;28;90764;-94
2023/02/04 00:26:45;;;;;;;;;;;7.10;99.90;7.60;101301.00;;;;344536;28;82514;-94
2023/02/04 00:26:57;;;;;;;;;;;7.10;99.90;7.60;101303.00;;;;345688;28;89998;-94
2023/02/04 00:27:09;;;;;;;;;;;7.10;99.90;7.60;101286.00;;;;347518;28;83313;-94
2023/02/04 00:27:20;;;;;;;;;;;7.10;99.90;7.60;101302.00;;;;345605;28;89514;-94
2023/02/04 00:27:32;;;;;;;;;;;7.10;99.90;7.60;101300.00;;;;346152;28;83364;-93
2023/02/04 00:27:44;;;;;;;;;;;7.10;99.90;7.60;101301.00;;;;345448;28;91423;-92
2023/02/04 00:27:56;;;;;;;;;;;7.10;99.90;7.60;101299.00;;;;346118;28;82496;-93
2023/02/04 00:28:08;;;;;;;;;;;7.10;99.90;7.60;101295.00;;;;345389;28;91657;-94
2023/02/04 00:28:19;;;;;;;;;;;7.10;99.90;7.60;101302.00;;;;347603;28;82355;-94
2023/02/04 00:28:31;;;;;;;;;;;7.10;99.90;7.60;101292.00;;;;345475;28;89250;-93
2023/02/04 00:28:43;;;;;;;;;;;7.10;99.90;7.60;101296.00;;;;346082;28;83231;-94
2023/02/04 00:28:55;;;;;;;;;;;7.10;99.90;7.70;101291.00;;;;345594;28;90316;-94
2023/02/04 00:29:07;;;;;;;;;;;7.10;99.90;7.70;101297.00;;;;344836;28;82451;-94
2023/02/04 00:29:18;;;;;;;;;;;7.10;99.90;7.60;101297.00;;;;347114;28;87646;-94
2023/02/04 00:29:30;;;;;;;;;;;7.10;99.90;7.60;101299.00;;;;348820;27;83153;-94
2023/02/04 00:29:42;;;;;;;;;;;7.10;99.90;7.60;101299.00;;;;344198;28;88390;-94
2023/02/04 00:29:54;;;;;;;;;;;7.10;99.90;7.60;101298.00;;;;347278;28;82633;-95
2023/02/04 00:30:06;;;;;;;;;;;7.10;99.90;7.60;101287.00;;;;346784;28;91827;-95
2023/02/04 00:30:18;;;;;;;;;;;7.10;99.90;7.60;101292.00;;;;344351;28;83657;-94
2023/02/04 00:30:30;;;;;;;;;;;7.10;99.90;7.60;101291.00;;;;345729;28;89162;-94
2023/02/04 00:30:43;;;;;;;;;;;7.10;99.90;7.60;101290.00;;;;345908;28;83871;-94
2023/02/04 00:30:55;;;;;;;;;;;7.10;99.90;7.60;101295.00;;;;345577;28;90415;-94
2023/02/04 00:31:07;;;;;;;;;;;7.10;99.90;7.60;101288.00;;;;347315;28;82696;-92
2023/02/04 00:31:18;;;;;;;;;;;7.10;99.90;7.60;101282.00;;;;347017;28;91177;-93
2023/02/04 00:31:30;;;;;;;;;;;7.10;99.90;7.60;101289.00;;;;346075;28;82540;-93
2023/02/04 00:31:42;;;;;;;;;;;7.10;99.90;7.60;101286.00;;;;344379;28;89456;-94
2023/02/04 00:31:54;;;;;;;;;;;7.10;99.90;7.60;101291.00;;;;345878;28;83546;-95
2023/02/04 00:32:06;;;;;;;;;;;7.10;99.90;7.60;101284.00;;;;345748;28;88818;-93
2023/02/04 00:32:18;;;;;;;;;;;7.10;99.90;7.60;101295.00;;;;344720;28;82558;-94
2023/02/04 00:32:30;;;;;;;;;;;7.10;99.90;7.60;101289.00;;;;347188;28;88418;-93
2023/02/04 00:32:42;;;;;;;;;;;7.10;99.90;7.60;101296.00;;;;346115;28;82444;-94
2023/02/04 00:32:55;;;;;;;;;;;7.10;99.90;7.60;101290.00;;;;347040;28;90095;-94
2023/02/04 00:33:07;;;;;;;;;;;7.10;99.90;7.60;101295.00;;;;350101;27;83538;-94
2023/02/04 00:33:19;;;;;;;;;;;7.10;99.90;7.60;101291.00;;;;346732;28;90676;-94
2023/02/04 00:33:31;;;;;;;;;;;7.10;99.90;7.60;101293.00;;;;344597;28;82584;-94
2023/02/04 00:33:43;;;;;;;;;;;7.10;99.90;7.60;101283.00;;;;345772;28;87570;-94
2023/02/04 00:33:55;;;;;;;;;;;7.10;99.90;7.60;101293.00;;;;347213;27;82571;-94
2023/02/04 00:34:06;;;;;;;;;;;7.10;99.90;7.60;101288.00;;;;348458;27;88306;-94
2023/02/04 00:34:18;;;;;;;;;;;7.10;99.90;7.60;101292.00;;;;346153;28;83886;-94
2023/02/04 00:34:30;;;;;;;;;;;7.10;99.90;7.70;101284.00;;;;346910;28;89572;-93
2023/02/04 00:34:42;;;;;;;;;;;7.10;99.90;7.70;101281.00;;;;345857;28;82576;-94
2023/02/04 00:34:53;;;;;;;;;;;7.10;99.90;7.60;101282.00;;;;344180;28;90117;-94
2023/02/04 00:35:06;;;;;;;;;;;7.10;99.90;7.60;101288.00;;;;347549;28;82429;-94
2023/02/04 00:35:17;;;;;;;;;;;7.10;99.90;7.60;101294.00;;;;345626;28;88347;-94
2023/02/04 00:35:29;;;;;;;;;;;7.10;99.90;7.60;101290.00;;;;344707;28;82577;-94
2023/02/04 00:35:41;;;;;;;;;;;7.10;99.90;7.60;101293.00;;;;346823;28;91401;-94
2023/02/04 00:35:53;;;;;;;;;;;7.10;99.90;7.60;101288.00;;;;345884;28;83181;-94
2023/02/04 00:36:05;;;;;;;;;;;7.10;99.90;7.60;101293.00;;;;346766;28;90127;-94
2023/02/04 00:36:17;;;;;;;;;;;7.10;99.90;7.60;101290.00;;;;346010;28;83434;-93
2023/02/04 00:36:29;;;;;;;;;;;7.10;99.90;7.60;101282.00;;;;344380;28;88710;-94
2023/02/04 00:36:41;;;;;;;;;;;7.10;99.90;7.60;101285.00;;;;346010;28;83335;-94
2023/02/04 00:36:52;;;;;;;;;;;7.10;99.90;7.60;101282.00;;;;345668;28;88172;-94
2023/02/04 00:37:04;;;;;;;;;;;7.10;99.90;7.60;101284.00;;;;347302;28;82443;-93
2023/02/04 00:37:16;;;;;;;;;;;7.10;99.90;7.60;101283.00;;;;345450;28;91146;-94
2023/02/04 00:37:28;;;;;;;;;;;7.10;99.90;7.60;101281.00;;;;345809;28;82608;-94
2023/02/04 00:37:39;;;;;;;;;;;7.10;99.90;7.60;101281.00;;;;345715;28;88156;-95
2023/02/04 00:37:51;;;;;;;;;;;7.10;99.90;7.50;101279.00;;;;344549;28;83486;-93
2023/02/04 00:38:04;;;;;;;;;;;7.10;99.90;7.50;101287.00;;;;345655;28;88395;-94
2023/02/04 00:38:16;;;;;;;;;;;7.10;99.90;7.50;101282.00;;;;346038;28;83207;-94
2023/02/04 00:38:27;;;;;;;;;;;7.10;99.90;7.60;101280.00;;;;344407;28;87921;-94
2023/02/04 00:38:39;;;;;;;;;;;7.10;99.90;7.60;101273.00;;;;345832;28;82374;-93
2023/02/04 00:38:51;;;;;;;;;;;7.10;99.90;7.60;101279.00;;;;345432;28;91692;-94
2023/02/04 00:39:03;;;;;;;;;;;7.10;99.90;7.70;101286.00;;;;346078;28;83232;-95
2023/02/04 00:39:14;;;;;;;;;;;7.10;99.90;7.60;101277.00;;;;345535;28;88443;-94
2023/02/04 00:39:26;;;;;;;;;;;7.10;99.90;7.70;101279.00;;;;345340;28;83565;-94
2023/02/04 00:39:38;;;;;;;;;;;7.10;99.90;7.70;101268.00;;;;344365;28;87675;-95
2023/02/04 00:39:50;;;;;;;;;;;7.10;99.90;7.60;101278.00;;;;345944;28;82722;-94
2023/02/04 00:40:02;;;;;;;;;;;7.10;99.90;7.60;101282.00;;;;344265;28;89326;-95
2023/02/04 00:40:14;;;;;;;;;;;7.10;99.90;7.60;101286.00;;;;346031;28;83546;-94
2023/02/04 00:40:25;;;;;;;;;;;7.10;99.90;7.60;101282.00;;;;344301;28;89244;-94
2023/02/04 00:40:37;;;;;;;;;;;7.10;99.90;7.60;101277.00;;;;346137;28;83382;-93
2023/02/04 00:40:49;;;;;;;;;;;7.10;99.90;7.70;101282.00;;;;345258;28;92061;-94
2023/02/04 00:41:01;;;;;;;;;;;7.10;99.90;7.60;101283.00;;;;345849;28;83304;-94
2023/02/04 00:41:12;;;;;;;;;;;7.10;99.90;7.60;101279.00;;;;345513;28;90443;-95
2023/02/04 00:41:24;;;;;;;;;;;7.10;99.90;7.60;101280.00;;;;347395;28;82550;-94
2023/02/04 00:41:36;;;;;;;;;;;7.10;99.90;7.70;101284.00;;;;344052;28;90468;-94
2023/02/04 00:41:48;;;;;;;;;;;7.10;99.90;7.70;101286.00;;;;346048;28;82671;-94
2023/02/04 00:42:00;;;;;;;;;;;7.10;99.90;7.70;101288.00;;;;346995;28;89616;-94
2023/02/04 00:42:11;;;;;;;;;;;7.10;99.90;7.80;101283.00;;;;344730;28;82327;-94
2023/02/04 00:42:23;;;;;;;;;;;7.20;99.90;7.80;101282.00;;;;347058;28;87942;-94
2023/02/04 00:42:35;;;;;;;;;;;7.20;99.90;7.70;101280.00;;;;346112;28;82385;-94
2023/02/04 00:42:47;;;;;;;;;;;7.10;99.90;7.70;101278.00;;;;346981;28;90077;-93
2023/02/04 00:42:59;;;;;;;;;;;7.10;99.90;7.70;101279.00;;;;347320;28;82413;-94
2023/02/04 00:43:10;;;;;;;;;;;7.20;99.90;7.70;101275.00;;;;345756;28;88287;-93
2023/02/04 00:43:22;;;;;;;;;;;7.10;99.90;7.70;101292.00;;;;346023;28;82431;-94
2023/02/04 00:43:34;;;;;;;;;;;7.20;99.90;7.80;101286.00;;;;345653;28;87072;-94
2023/02/04 00:43:46;;;;;;;;;;;7.20;99.90;7.80;101283.00;;;;347564;28;83299;-94
2023/02/04 00:43:58;;;;;;;;;;;7.20;99.90;7.80;101280.00;;;;348410;27;89139;-94
2023/02/04 00:44:09;;;;;;;;;;;7.20;99.90;7.80;101277.00;;;;344568;28;82486;-95
2023/02/04 00:44:21;;;;;;;;;;;7.20;99.90;7.80;101280.00;;;;343995;28;87765;-94
2023/02/04 00:44:35;;;;;;;;;;;7.20;99.90;7.70;101283.00;;;;345704;28;82346;-94
2023/02/04 00:44:47;;;;;;;;;;;7.20;99.90;7.70;101287.00;;;;348367;27;89857;-95
2023/02/04 00:44:58;;;;;;;;;;;7.20;99.90;7.70;101276.00;;;;347501;28;83318;-94
2023/02/04 00:45:10;;;;;;;;;;;7.20;99.90;7.70;101285.00;;;;344412;28;88056;-93
2023/02/04 00:45:22;;;;;;;;;;;7.20;99.90;7.70;101284.00;;;;347201;28;83465;-94
2023/02/04 00:45:34;;;;;;;;;;;7.20;99.90;7.80;101283.00;;;;348236;27;89957;-94
2023/02/04 00:45:46;;;;;;;;;;;7.20;99.90;7.80;101273.00;;;;345905;28;82566;-95
2023/02/04 00:45:58;;;;;;;;;;;7.20;99.90;7.90;101275.00;;;;345736;28;88767;-94
2023/02/04 00:46:10;;;;;;;;;;;7.30;99.90;7.80;101279.00;;;;347507;28;82490;-94
2023/02/04 00:46:22;;;;;;;;;;;7.20;99.90;7.80;101284.00;;;;344266;28;89435;-93
2023/02/04 00:46:34;;;;;;;;;;;7.20;99.90;7.80;101283.00;;;;347307;28;83472;-93
2023/02/04 00:46:47;;;;;;;;;;;7.30;99.90;7.80;101287.00;;;;346721;28;92508;-94
2023/02/04 00:46:59;;;;;;;;;;;7.30;99.90;7.70;101282.00;;;;346112;28;83200;-94
2023/02/04 00:47:11;;;;;;;;;;;7.30;99.90;7.70;101284.00;;;;345731;28;89403;-94
2023/02/04 00:47:23;;;;;;;;;;;7.30;99.90;7.80;101282.00;;;;344481;28;83425;-94
2023/02/04 00:47:34;;;;;;;;;;;7.20;99.90;7.80;101284.00;;;;345420;28;91428;-94
2023/02/04 00:47:46;;;;;;;;;;;7.30;99.90;7.80;101286.00;;;;347284;28;83483;-94
2023/02/04 00:47:58;;;;;;;;;;;7.30;99.90;7.90;101285.00;;;;348247;27;89480;-93
2023/02/04 00:48:10;;;;;;;;;;;7.30;99.90;7.80;101280.00;;;;347169;28;82590;-94
2023/02/04 00:48:21;;;;;;;;;;;7.30;99.90;7.80;101285.00;;;;345748;28;89111;-94
2023/02/04 00:48:34;;;;;;;;;;;7.30;99.90;7.80;101289.00;;;;346290;28;82276;-94
2023/02/04 00:48:46;;;;;;;;;;;7.30;99.90;7.80;101283.00;;;;346784;28;88160;-93
2023/02/04 00:48:58;;;;;;;;;;;7.30;99.90;7.80;101285.00;;;;344722;28;83171;-93
2023/02/04 00:49:10;;;;;;;;;;;7.30;99.90;7.80;101283.00;;;;346874;28;91922;-94
2023/02/04 00:49:21;;;;;;;;;;;7.30;99.90;7.80;101283.00;;;;347372;27;82328;-94
2023/02/04 00:49:33;;;;;;;;;;;7.30;99.90;7.80;101280.00;;;;345591;28;89257;-94
2023/02/04 00:49:45;;;;;;;;;;;7.30;99.90;7.70;101281.00;;;;344738;28;83504;-94
2023/02/04 00:49:57;;;;;;;;;;;7.30;99.90;7.70;101284.00;;;;345741;28;91076;-93
2023/02/04 00:50:09;;;;;;;;;;;7.30;99.90;7.80;101279.00;;;;347335;28;82635;-94
2023/02/04 00:50:21;;;;;;;;;;;7.30;99.90;7.80;101278.00;;;;345719;28;88300;-94
2023/02/04 00:50:38;;;;;;;;;;;7.30;99.90;7.90;101275.00;;;;345855;28;83555;-93
2023/02/04 00:50:51;;;;;;;;;;;7.30;99.90;7.90;101281.00;;;;346765;28;91569;-94
2023/02/04 00:51:03;;;;;;;;;;;7.30;99.90;7.90;101278.00;;;;347462;28;83359;-94
2023/02/04 00:51:15;;;;;;;;;;;7.30;99.90;7.90;101277.00;;;;345711;28;89444;-94
2023/02/04 00:51:27;;;;;;;;;;;7.30;99.90;7.90;101279.00;;;;346066;28;82583;-94
2023/02/04 00:51:43;;;;;;;;;;;7.30;99.90;7.90;101269.00;;;;345677;28;90191;-93
2023/02/04 00:51:55;;;;;;;;;;;7.30;99.90;8.00;101276.00;;;;345968;28;83324;-93
2023/02/04 00:52:07;;;;;;;;;;;7.30;99.90;7.90;101274.00;;;;348149;27;90022;-93
2023/02/04 00:52:18;;;;;;;;;;;7.30;99.90;7.90;101267.00;;;;347534;28;82383;-94
2023/02/04 00:52:30;;;;;;;;;;;7.40;99.90;7.90;101274.00;;;;345539;28;89621;-93
2023/02/04 00:52:42;;;;;;;;;;;7.30;99.90;7.90;101273.00;;;;344744;28;82346;-94
2023/02/04 00:52:54;;;;;;;;;;;7.40;99.90;7.90;101268.00;;;;344282;28;88798;-94
2023/02/04 00:53:06;;;;;;;;;;;7.40;99.90;7.90;101272.00;;;;346074;28;83368;-94
2023/02/04 00:53:18;;;;;;;;;;;7.40;99.90;7.90;101272.00;;;;345509;28;89069;-94
2023/02/04 00:53:29;;;;;;;;;;;7.40;99.90;7.90;101278.00;;;;346054;28;82519;-94
2023/02/04 00:53:41;;;;;;;;;;;7.40;99.90;8.00;101272.00;;;;348245;27;88328;-94
2023/02/04 00:53:53;;;;;;;;;;;7.40;99.90;7.90;101266.00;;;;346131;28;83340;-94
2023/02/04 00:54:05;;;;;;;;;;;7.40;99.90;7.90;101278.00;;;;345614;28;88419;-95
2023/02/04 00:54:17;;;;;;;;;;;7.40;99.90;8.00;101274.00;;;;347321;28;82542;-93
2023/02/04 00:54:29;;;;;;;;;;;7.40;99.90;7.90;101280.00;;;;346967;28;88065;-94
2023/02/04 00:54:40;;;;;;;;;;;7.40;99.90;7.90;101269.00;;;;345902;28;82464;-93
2023/02/04 00:54:52;;;;;;;;;;;7.40;99.90;7.90;101274.00;;;;345633;28;89286;-94
2023/02/04 00:55:06;;;;;;;;;;;7.40;99.90;7.90;101271.00;;;;345743;28;82580;-93
2023/02/04 00:55:18;;;;;;;;;;;7.40;99.90;7.90;101270.00;;;;344329;28;89175;-94
2023/02/04 00:55:30;;;;;;;;;;;7.40;99.90;7.90;101285.00;;;;343350;28;83304;-94
2023/02/04 00:55:41;;;;;;;;;;;7.40;99.90;7.90;101275.00;;;;345780;28;88319;-93
2023/02/04 00:55:53;;;;;;;;;;;7.40;99.90;7.90;101277.00;;;;347608;28;82471;-94
2023/02/04 00:56:05;;;;;;;;;;;7.50;99.90;7.90;101277.00;;;;344197;28;87099;-94
2023/02/04 00:56:17;;;;;;;;;;;7.40;99.90;8.00;101277.00;;;;344770;28;82454;-93
2023/02/04 00:56:29;;;;;;;;;;;7.40;99.90;8.00;101278.00;;;;345542;28;90831;-94
2023/02/04 00:56:41;;;;;;;;;;;7.50;99.90;8.00;101273.00;;;;344878;28;83417;-93
2023/02/04 00:56:53;;;;;;;;;;;7.40;99.90;8.00;101274.00;;;;344245;28;90992;-94
2023/02/04 00:57:05;;;;;;;;;;;7.40;99.90;8.10;101276.00;;;;343627;28;83368;-94
2023/02/04 00:57:17;;;;;;;;;;;7.50;99.90;8.00;101259.00;;;;345640;28;89177;-94
2023/02/04 00:57:29;;;;;;;;;;;7.50;99.90;8.00;101261.00;;;;345792;28;83396;-94
2023/02/04 00:57:41;;;;;;;;;;;7.50;99.90;8.00;101277.00;;;;344398;28;87672;-94
2023/02/04 00:57:53;;;;;;;;;;;7.50;99.90;8.00;101276.00;;;;344770;28;82366;-94
2023/02/04 00:58:05;;;;;;;;;;;7.50;99.90;8.00;101272.00;;;;347163;28;90641;-94
2023/02/04 00:58:17;;;;;;;;;;;7.50;99.90;8.00;101276.00;;;;347615;28;83444;-94
2023/02/04 00:58:28;;;;;;;;;;;7.50;99.90;8.00;101273.00;;;;347364;28;89341;-94
2023/02/04 00:58:40;;;;;;;;;;;7.50;99.90;8.00;101268.00;;;;346134;28;82532;-92
2023/02/04 00:58:52;;;;;;;;;;;7.50;99.90;8.00;101276.00;;;;345752;28;90299;-93
2023/02/04 00:59:04;;;;;;;;;;;7.50;99.90;8.00;101265.00;;;;346321;28;82399;-94
2023/02/04 00:59:16;;;;;;;;;;;7.50;99.90;8.00;101274.00;;;;345558;28;89945;-94
2023/02/04 00:59:28;;;;;;;;;;;7.50;99.90;8.10;101271.00;;;;346200;28;82600;-94
2023/02/04 00:59:40;;;;;;;;;;;7.50;99.90;8.10;101272.00;;;;346277;28;90500;-94
2023/02/04 00:59:51;;;;;;;;;;;7.60;99.90;8.10;101276.00;;;;345746;28;82450;-93
2023/02/04 01:00:04;;;;;;;;;;;7.50;99.90;8.10;101270.00;;;;345936;28;89495;-89